Time;durP1;ratioP1;P1;durP2;ratioP2;P2;SDS_P1;SDS_P2;PMS_P1;PMS_P2;Temp;Humidity;BMP_temperature;BMP_pressure;BME280_temperature;BME280_humidity;BME280_pressure;Samples;Min_cycle;Max_cycle;Signal;HPM_P1;HPM_P2
2021/03/25 00:05:36;;;;;;;71.40;33.80;;;;;;;5.22;100.00;99659.48;4043626;88;28634;-84
2021/03/25 00:11:38;;;;;;;70.00;32.35;;;;;;;5.25;100.00;99651.11;4024575;88;28565;-84
2021/03/25 00:17:40;;;;;;;64.75;29.52;;;;;;;5.21;100.00;99651.98;3975656;87;28634;-83
2021/03/25 00:23:42;;;;;;;74.00;32.28;;;;;;;5.22;100.00;99652.81;3993538;88;28586;-83
2021/03/25 00:29:44;;;;;;;68.12;32.78;;;;;;;5.24;100.00;99642.80;3993686;88;28578;-83
2021/03/25 00:35:48;;;;;;;75.45;35.68;;;;;;;5.24;100.00;99647.61;3993301;88;28563;-84
2021/03/25 00:41:50;;;;;;;75.92;34.00;;;;;;;5.08;100.00;99640.59;3988152;87;28611;-84
2021/03/25 00:47:53;;;;;;;71.20;30.65;;;;;;;4.92;100.00;99638.08;3996872;88;28630;-84
2021/03/25 00:53:56;;;;;;;71.05;30.70;;;;;;;4.92;100.00;99640.74;4010657;88;28594;-84
2021/03/25 00:59:58;;;;;;;73.65;33.18;;;;;;;4.81;100.00;99633.98;4024379;88;28609;-84
2021/03/25 01:06:00;;;;;;;74.37;33.50;;;;;;;4.90;100.00;99633.44;3987213;87;28627;-82
2021/03/25 01:12:04;;;;;;;76.00;33.65;;;;;;;4.97;100.00;99624.54;3990705;88;28583;-82
2021/03/25 01:18:07;;;;;;;75.55;32.10;;;;;;;4.96;100.00;99624.22;3989574;88;28621;-84
2021/03/25 01:24:12;;;;;;;79.77;33.67;;;;;;;4.92;100.00;99622.91;4053826;87;28585;-85
2021/03/25 01:30:17;;;;;;;81.63;36.35;;;;;;;4.92;100.00;99621.57;4016584;87;28630;-86
2021/03/25 01:36:21;;;;;;;84.22;36.77;;;;;;;4.95;100.00;99610.58;3991290;87;28558;-86
2021/03/25 01:42:29;;;;;;;82.65;36.55;;;;;;;4.87;100.00;99606.13;3989466;88;28622;-87
2021/03/25 01:48:38;;;;;;;79.42;34.13;;;;;;;4.81;100.00;99606.86;4001196;88;28676;-85
2021/03/25 01:55:09;;;;;;;73.57;33.18;;;;;;;4.78;100.00;99605.86;4053993;87;28573;-85
2021/03/25 02:01:40;;;;;;;88.37;38.20;;;;;;;4.80;100.00;99601.20;4015327;88;28571;-84
2021/03/25 02:07:52;;;;;;;97.12;42.05;;;;;;;4.76;100.00;99594.56;4018778;87;28605;-84
2021/03/25 02:14:38;;;;;;;84.62;36.95;;;;;;;4.65;100.00;99590.99;4003058;88;28649;-84
2021/03/25 02:21:20;;;;;;;91.67;39.35;;;;;;;4.67;100.00;99593.81;4005893;87;28566;-85
2021/03/25 02:27:38;;;;;;;99.70;41.88;;;;;;;4.50;100.00;99581.62;4018221;87;28582;-82
2021/03/25 02:33:47;;;;;;;100.30;42.85;;;;;;;4.62;100.00;99583.38;4061297;86;28605;-83
2021/03/25 02:40:15;;;;;;;101.45;41.63;;;;;;;4.55;100.00;99582.73;4055895;86;28550;-82
2021/03/25 02:46:34;;;;;;;96.12;40.08;;;;;;;4.53;100.00;99578.59;4563223;76;85688;-83
2021/03/25 02:52:44;;;;;;;93.00;39.05;;;;;;;4.41;100.00;99580.86;4497806;78;28546;-82
2021/03/25 02:59:01;;;;;;;98.82;41.53;;;;;;;4.35;100.00;99576.23;4508721;79;28577;-83
2021/03/25 03:05:13;;;;;;;92.72;40.95;;;;;;;4.33;100.00;99578.56;4525283;78;28579;-83
2021/03/25 03:11:32;;;;;;;96.20;40.17;;;;;;;4.26;100.00;99579.46;4500419;77;28626;-83
2021/03/25 03:17:45;;;;;;;95.83;40.25;;;;;;;4.23;100.00;99582.48;4514908;78;28538;-84
2021/03/25 03:24:00;;;;;;;92.37;40.58;;;;;;;4.07;100.00;99579.42;4377488;79;85164;-85
2021/03/25 03:30:10;;;;;;;89.42;39.65;;;;;;;3.97;100.00;99577.80;4342655;81;28545;-84
2021/03/25 03:36:19;;;;;;;84.87;34.78;;;;;;;3.98;100.00;99575.47;4303887;81;28569;-84
2021/03/25 03:42:25;;;;;;;87.10;38.65;;;;;;;4.05;100.00;99577.73;4343281;80;28576;-84
2021/03/25 03:48:45;;;;;;;86.60;40.30;;;;;;;3.92;100.00;99576.67;4292461;80;28562;-83
2021/03/25 03:54:51;;;;;;;93.82;39.53;;;;;;;3.96;100.00;99572.64;4193489;84;51038;-84
2021/03/25 04:01:02;;;;;;;98.60;39.93;;;;;;;3.88;100.00;99572.20;4222399;83;34558;-85
2021/03/25 04:07:09;;;;;;;79.87;34.08;;;;;;;3.84;100.00;99577.03;4214654;84;28559;-84
2021/03/25 04:13:31;;;;;;;86.17;36.03;;;;;;;3.90;100.00;99571.02;4219028;84;28574;-84
2021/03/25 04:19:42;;;;;;;;;;;;;;;3.93;100.00;99568.50;4177912;84;28596;-85
2021/03/25 04:25:52;;;;;;;89.72;38.95;;;;;;;4.02;100.00;99577.28;4190908;83;20191;-84
2021/03/25 04:31:57;;;;;;;99.10;40.45;;;;;;;3.96;100.00;99576.64;4172235;84;28592;-84
2021/03/25 04:38:00;;;;;;;92.50;39.23;;;;;;;3.92;100.00;99581.48;4168268;84;28571;-84
2021/03/25 04:44:07;;;;;;;87.80;37.40;;;;;;;3.81;100.00;99584.52;4169569;84;28552;-83
2021/03/25 04:50:21;;;;;;;88.30;36.80;;;;;;;3.83;100.00;99584.69;4215684;84;28654;-85
2021/03/25 04:56:24;;;;;;;92.78;39.23;;;;;;;3.88;100.00;99591.63;4197820;84;28620;-84
2021/03/25 05:02:28;;;;;;;93.67;39.70;;;;;;;4.04;100.00;99594.70;4197999;83;28578;-84
2021/03/25 05:08:34;;;;;;;92.15;38.98;;;;;;;3.97;100.00;99597.76;4206287;84;28580;-84
2021/03/25 05:14:36;;;;;;;100.22;40.55;;;;;;;4.12;100.00;99595.67;4217083;84;28626;-83
2021/03/25 05:20:50;;;;;;;88.42;38.80;;;;;;;4.08;100.00;99599.70;4196489;83;28635;-84
2021/03/25 05:27:07;;;;;;;103.22;42.23;;;;;;;4.08;100.00;99603.69;4238203;83;28585;-83
2021/03/25 05:33:15;;;;;;;94.95;41.73;;;;;;;4.48;100.00;99600.94;4219924;83;28541;-83
2021/03/25 05:39:18;;;;;;;101.65;42.08;;;;;;;4.22;100.00;99606.08;4345618;82;28548;-83
2021/03/25 05:45:47;;;;;;;98.62;43.92;;;;;;;4.22;100.00;99609.59;4287102;82;28964;-84
2021/03/25 05:52:34;;;;;;;95.12;42.15;;;;;;;4.26;100.00;99610.88;4297105;82;28552;-85
2021/03/25 05:58:45;;;;;;;93.17;38.75;;;;;;;4.27;100.00;99605.91;4323215;81;28706;-84
2021/03/25 06:04:51;;;;;;;92.53;39.98;;;;;;;4.40;100.00;99622.62;4175911;84;28613;-84
2021/03/25 06:11:01;;;;;;;102.55;43.78;;;;;;;4.38;100.00;99621.16;4215194;84;28570;-81
2021/03/25 06:17:12;;;;;;;93.75;42.53;;;;;;;4.49;100.00;99615.91;4175966;83;28546;-81
2021/03/25 06:23:58;;;;;;;99.77;43.17;;;;;;;4.59;100.00;99615.17;4258330;83;28563;-79
2021/03/25 06:30:12;;;;;;;101.10;43.68;;;;;;;4.65;100.00;99618.96;4257820;82;28567;-82
2021/03/25 06:36:19;;;;;;;86.00;39.18;;;;;;;4.78;100.00;99620.52;4194306;84;28580;-79
2021/03/25 06:42:32;;;;;;;78.28;33.85;;;;;;;4.84;100.00;99624.30;4189223;84;28973;-81
2021/03/25 06:48:44;;;;;;;73.25;32.10;;;;;;;4.95;100.00;99620.39;4208363;84;28650;-80
2021/03/25 06:54:46;;;;;;;73.75;33.55;;;;;;;5.14;100.00;99633.70;4320445;81;28623;-80
2021/03/25 07:01:00;;;;;;;73.57;33.55;;;;;;;5.14;100.00;99633.70;4325406;81;28578;-80
2021/03/25 07:07:08;;;;;;;67.42;30.35;;;;;;;5.38;100.00;99643.31;4335613;81;28616;-79
2021/03/25 07:13:18;;;;;;;65.57;29.42;;;;;;;5.38;100.00;99644.64;4256540;83;28570;-81
2021/03/25 07:19:23;;;;;;;62.85;29.98;;;;;;;5.49;100.00;99642.53;4229727;82;28572;-80
2021/03/25 07:25:26;;;;;;;59.80;27.27;;;;;;;5.48;100.00;99638.22;4289581;82;28534;-80
2021/03/25 07:31:46;;;;;;;52.05;24.85;;;;;;;5.78;100.00;99644.41;4229485;83;28643;-80
2021/03/25 07:37:48;;;;;;;60.33;27.75;;;;;;;5.92;100.00;99643.23;4236650;84;28553;-80
2021/03/25 07:44:07;;;;;;;60.65;27.37;;;;;;;6.13;100.00;99649.16;4183986;84;28565;-80
2021/03/25 07:50:23;;;;;;;64.07;27.20;;;;;;;6.09;100.00;99643.39;4169462;84;28589;-80
2021/03/25 07:56:26;;;;;;;57.05;27.65;;;;;;;6.20;100.00;99646.59;4189118;84;28549;-81
2021/03/25 08:02:41;;;;;;;58.02;27.62;;;;;;;6.31;100.00;99650.61;4168701;84;28572;-79
2021/03/25 08:08:44;;;;;;;54.38;25.23;;;;;;;6.58;100.00;99650.91;4354895;80;28554;-80
2021/03/25 08:14:47;;;;;;;49.00;22.98;;;;;;;6.91;100.00;99658.41;4349496;81;28551;-79
2021/03/25 08:21:22;;;;;;;54.25;26.82;;;;;;;6.95;100.00;99653.83;4328452;80;28661;-80
2021/03/25 08:27:51;;;;;;;54.73;26.12;;;;;;;7.27;100.00;99654.80;4332486;81;28602;-81
2021/03/25 08:34:05;;;;;;;59.48;27.75;;;;;;;7.57;100.00;99650.58;4322462;80;28543;-82
2021/03/25 08:40:18;;;;;;;52.93;24.52;;;;;;;7.75;100.00;99632.66;4354365;81;28588;-85
2021/03/25 08:46:37;;;;;;;55.73;25.77;;;;;;;7.92;100.00;99637.70;4345509;81;28641;-82
2021/03/25 08:52:42;;;;;;;58.95;27.52;;;;;;;8.06;100.00;99642.08;4335758;80;28612;-84
2021/03/25 08:58:45;;;;;;;57.17;26.85;;;;;;;8.30;100.00;99643.09;4321087;81;28637;-82
2021/03/25 09:04:53;;;;;;;59.75;27.80;;;;;;;8.55;100.00;99643.94;4161673;84;28553;-82
2021/03/25 09:11:03;;;;;;;56.50;26.97;;;;;;;8.62;100.00;99641.57;4177686;84;28599;-83
2021/03/25 09:17:08;;;;;;;51.95;24.70;;;;;;;8.88;100.00;99638.59;4329174;81;28571;-83
2021/03/25 09:23:35;;;;;;;51.33;24.40;;;;;;;9.04;100.00;99636.56;4169372;84;28545;-85
2021/03/25 09:30:10;;;;;;;44.48;21.10;;;;;;;9.12;100.00;99635.02;4191276;84;28561;-85
2021/03/25 09:36:23;;;;;;;51.68;24.07;;;;;;;9.39;100.00;99632.30;4343469;81;28544;-84
2021/03/25 09:42:27;;;;;;;45.23;22.22;;;;;;;9.81;100.00;99624.45;4321504;80;28580;-83
2021/03/25 09:48:31;;;;;;;43.58;22.02;;;;;;;10.00;100.00;99625.44;4300850;80;28550;-83
2021/03/25 09:54:57;;;;;;;45.75;21.68;;;;;;;10.17;100.00;99624.44;4304778;81;28586;-83
2021/03/25 10:00:59;;;;;;;42.80;22.30;;;;;;;10.10;100.00;99623.12;4315788;80;28598;-83
2021/03/25 10:07:18;;;;;;;44.30;20.85;;;;;;;10.51;96.50;99622.92;4306361;81;28658;-81
2021/03/25 10:13:31;;;;;;;42.60;20.80;;;;;;;10.75;100.00;99618.63;4248789;83;28582;-81
2021/03/25 10:19:46;;;;;;;38.80;19.73;;;;;;;11.20;99.25;99613.61;4180591;84;28622;-83
2021/03/25 10:25:52;;;;;;;40.15;19.90;;;;;;;10.95;90.37;99619.00;4184647;84;28547;-82
2021/03/25 10:32:00;;;;;;;38.88;19.27;;;;;;;10.99;86.77;99621.58;4200170;84;28590;-85
2021/03/25 10:38:09;;;;;;;39.78;19.12;;;;;;;10.84;73.64;99617.86;4324810;80;28629;-86
2021/03/25 10:44:26;;;;;;;37.80;19.73;;;;;;;10.62;72.75;99611.50;4342464;80;28642;-84
2021/03/25 10:50:32;;;;;;;;;;;;;;;10.52;76.83;99625.41;4344491;81;28619;-85
2021/03/25 10:56:38;;;;;;;39.08;20.30;;;;;;;10.46;73.33;99616.34;4333454;81;20175;-84
2021/03/25 11:02:44;;;;;;;41.20;20.27;;;;;;;10.10;75.39;99611.03;4314285;80;28556;-84
2021/03/25 11:08:47;;;;;;;37.75;20.17;;;;;;;10.78;79.12;99599.89;4175677;84;28595;-84
2021/03/25 11:15:03;;;;;;;45.55;21.77;;;;;;;10.69;72.97;99599.34;4326915;81;28579;-84
2021/03/25 11:21:07;;;;;;;39.15;20.20;;;;;;;10.78;72.79;99595.86;4343999;81;28607;-85
2021/03/25 11:27:19;;;;;;;42.57;20.13;;;;;;;10.92;70.72;99585.82;4324891;81;28638;-83
2021/03/25 11:33:33;;;;;;;36.45;19.65;;;;;;;11.01;75.46;99589.88;4335774;81;28681;-84
2021/03/25 11:39:36;;;;;;;38.90;20.97;;;;;;;11.32;71.71;99582.77;4341141;81;28642;-85
2021/03/25 11:45:45;;;;;;;41.63;22.65;;;;;;;11.27;72.69;99575.36;4305535;81;28641;-81
2021/03/25 11:52:00;;;;;;;40.23;21.12;;;;;;;10.71;69.25;99573.86;4325812;81;28612;-82
2021/03/25 11:58:22;;;;;;;40.63;20.90;;;;;;;10.93;67.44;99567.29;4309575;81;28583;-84
2021/03/25 12:04:27;;;;;;;41.08;22.55;;;;;;;11.40;70.05;99566.33;4308196;81;28620;-82
2021/03/25 12:10:29;;;;;;;45.25;23.38;;;;;;;11.49;64.99;99563.31;4330409;81;28581;-80
2021/03/25 12:16:33;;;;;;;42.88;23.42;;;;;;;11.34;63.92;99565.86;4332580;81;28670;-78
2021/03/25 12:22:40;;;;;;;47.03;25.25;;;;;;;11.67;63.16;99557.93;4307396;81;28548;-79
2021/03/25 12:28:42;;;;;;;45.33;23.75;;;;;;;11.78;64.20;99550.14;4294272;82;28642;-80
2021/03/25 12:34:46;;;;;;;48.65;24.85;;;;;;;11.96;63.96;99543.89;4341582;82;28631;-79
2021/03/25 12:40:49;;;;;;;44.03;23.12;;;;;;;11.69;60.25;99548.29;4320034;82;28592;-79
2021/03/25 12:46:51;;;;;;;45.40;25.27;;;;;;;11.69;64.29;99538.32;4349958;81;28545;-80
2021/03/25 12:52:54;;;;;;;44.93;23.50;;;;;;;11.79;62.45;99536.45;4330228;82;28546;-83
2021/03/25 12:58:59;;;;;;;43.40;23.10;;;;;;;11.83;59.57;99530.09;4311045;82;28700;-82
2021/03/25 13:05:01;;;;;;;45.75;24.10;;;;;;;12.02;64.97;99520.59;4308268;82;28576;-83
2021/03/25 13:11:06;;;;;;;45.85;24.02;;;;;;;11.86;65.16;99512.92;4333589;81;28591;-83
2021/03/25 13:17:08;;;;;;;48.98;25.65;;;;;;;11.65;63.07;99513.41;4326970;82;28541;-84
2021/03/25 13:23:12;;;;;;;45.78;23.30;;;;;;;11.34;63.85;99512.53;4311438;81;28573;-83
2021/03/25 13:29:15;;;;;;;44.45;23.98;;;;;;;11.20;65.17;99506.50;4312059;81;28657;-81
2021/03/25 13:35:18;;;;;;;42.33;23.45;;;;;;;10.99;63.08;99497.81;4329361;81;28557;-82
2021/03/25 13:41:21;;;;;;;44.40;22.37;;;;;;;10.99;64.82;99497.81;4336055;81;28540;-81
2021/03/25 13:47:23;;;;;;;46.15;23.35;;;;;;;10.98;65.90;99497.48;4331321;81;28658;-82
2021/03/25 13:53:28;;;;;;;46.65;24.18;;;;;;;10.64;65.81;99483.03;4317659;81;28643;-85
2021/03/25 13:59:30;;;;;;;46.13;24.90;;;;;;;10.61;66.82;99478.07;4328636;81;28615;-83
2021/03/25 14:05:34;;;;;;;46.40;23.27;;;;;;;10.50;65.09;99483.66;4343451;81;28597;-84
2021/03/25 14:11:36;;;;;;;44.93;23.87;;;;;;;10.64;67.13;99472.78;4356810;81;28564;-83
2021/03/25 14:17:39;;;;;;;45.05;23.90;;;;;;;10.69;67.14;99460.86;4322407;81;28602;-83
2021/03/25 14:23:41;;;;;;;47.62;23.77;;;;;;;10.47;68.47;99462.60;4360584;81;28593;-83
2021/03/25 14:29:43;;;;;;;42.15;22.87;;;;;;;10.68;64.90;99454.64;4312606;81;28623;-84
2021/03/25 14:35:47;;;;;;;46.02;24.07;;;;;;;10.65;65.91;99455.59;4319832;81;28584;-83
2021/03/25 14:41:49;;;;;;;50.90;24.23;;;;;;;10.69;65.68;99451.44;4323990;81;28668;-83
2021/03/25 14:47:52;;;;;;;46.90;24.32;;;;;;;10.68;66.10;99450.61;4304755;81;28581;-84
2021/03/25 14:53:55;;;;;;;46.98;23.25;;;;;;;10.64;66.13;99452.11;4341531;81;28575;-85
2021/03/25 14:59:57;;;;;;;49.35;25.55;;;;;;;10.66;65.40;99438.42;4311231;81;28977;-83
2021/03/25 15:05:59;;;;;;;49.10;24.60;;;;;;;10.62;65.52;99442.61;4364749;81;28651;-82
2021/03/25 15:12:04;;;;;;;49.60;25.50;;;;;;;10.50;63.59;99441.98;4310870;81;28641;-81
2021/03/25 15:18:08;;;;;;;43.87;23.12;;;;;;;10.63;64.98;99440.21;4319000;81;28563;-86
2021/03/25 15:24:11;;;;;;;50.90;24.98;;;;;;;10.58;66.37;99439.02;4379422;81;28569;-82
2021/03/25 15:30:19;;;;;;;49.18;25.62;;;;;;;10.58;65.72;99439.53;4180491;84;28566;-82
2021/03/25 15:36:21;;;;;;;50.23;24.05;;;;;;;10.54;65.75;99437.80;4140669;86;28603;-83
2021/03/25 15:42:24;;;;;;;48.90;24.67;;;;;;;10.53;66.14;99429.98;4160501;86;28647;-84
2021/03/25 15:48:26;;;;;;;47.08;25.12;;;;;;;10.42;66.37;99437.72;4160488;86;28633;-83
2021/03/25 15:54:29;;;;;;;46.75;24.05;;;;;;;10.26;67.31;99429.66;4161401;84;28585;-82
2021/03/25 16:00:31;;;;;;;47.20;24.18;;;;;;;10.09;66.76;99432.58;4182346;84;29245;-81
2021/03/25 16:06:33;;;;;;;47.80;24.05;;;;;;;9.99;69.19;99435.73;4188709;84;28560;-81
2021/03/25 16:12:36;;;;;;;47.55;23.98;;;;;;;9.69;70.50;99435.02;4181223;84;28583;-80
2021/03/25 16:18:39;;;;;;;51.88;23.80;;;;;;;9.51;70.03;99433.02;4187697;84;28607;-81
2021/03/25 16:24:42;;;;;;;47.93;23.98;;;;;;;9.23;72.79;99435.54;4211003;84;28600;-84
2021/03/25 16:30:44;;;;;;;47.62;23.77;;;;;;;9.11;72.34;99440.23;4184445;84;28568;-82
2021/03/25 16:36:47;;;;;;;47.55;24.07;;;;;;;8.82;75.68;99438.34;4201386;84;28650;-81
2021/03/25 16:42:50;;;;;;;47.13;23.05;;;;;;;8.68;77.24;99442.06;4209918;84;28598;-82
2021/03/25 16:48:56;;;;;;;46.18;21.68;;;;;;;8.43;84.95;99433.30;4191722;84;28618;-83
2021/03/25 16:55:00;;;;;;;46.60;22.45;;;;;;;8.15;94.19;99437.01;4217039;84;28560;-80
2021/03/25 17:01:03;;;;;;;38.58;20.50;;;;;;;7.89;92.23;99438.11;4234674;84;28590;-82
2021/03/25 17:07:06;;;;;;;42.50;20.77;;;;;;;7.63;92.53;99438.38;4189509;84;28647;-79
2021/03/25 17:13:10;;;;;;;40.60;21.12;;;;;;;7.43;92.40;99439.64;4188037;84;28599;-82
2021/03/25 17:19:13;;;;;;;44.23;21.23;;;;;;;7.21;95.61;99441.63;4213685;84;28624;-79
2021/03/25 17:25:19;;;;;;;47.45;22.77;;;;;;;6.97;94.18;99441.92;4199631;82;28573;-77
2021/03/25 17:31:25;;;;;;;42.75;21.07;;;;;;;6.77;98.51;99459.19;4197273;83;28546;-79
2021/03/25 17:37:27;;;;;;;47.45;20.90;;;;;;;6.62;99.80;99459.30;4193970;83;28614;-81
2021/03/25 17:43:29;;;;;;;40.28;20.62;;;;;;;6.45;100.00;99472.62;4212903;84;28612;-79
2021/03/25 17:49:31;;;;;;;49.67;22.13;;;;;;;6.27;100.00;99477.41;4193005;84;28618;-78
2021/03/25 17:55:36;;;;;;;42.70;21.95;;;;;;;5.98;100.00;99476.48;4189197;84;28598;-77
2021/03/25 18:01:39;;;;;;;47.73;21.90;;;;;;;5.86;100.00;99486.83;4182253;84;28591;-79
2021/03/25 18:07:41;;;;;;;51.35;23.02;;;;;;;5.68;100.00;99481.11;4213075;84;28644;-81
2021/03/25 18:13:44;;;;;;;49.60;22.10;;;;;;;5.57;100.00;99489.08;4177718;84;28569;-82
2021/03/25 18:19:46;;;;;;;47.95;22.05;;;;;;;5.39;100.00;99492.16;4178197;84;28615;-79
2021/03/25 18:25:49;;;;;;;44.60;22.07;;;;;;;5.17;100.00;99496.08;4282909;81;28574;-82
2021/03/25 18:31:51;;;;;;;50.73;23.30;;;;;;;5.08;100.00;99491.33;4337437;81;28607;-77
2021/03/25 18:37:54;;;;;;;50.38;24.07;;;;;;;4.99;100.00;99498.59;4185046;84;28656;-78
2021/03/25 18:43:57;;;;;;;51.15;22.20;;;;;;;4.88;100.00;99497.72;4212085;82;28621;-77
2021/03/25 18:50:00;;;;;;;46.20;21.95;;;;;;;4.80;100.00;99504.45;4229985;84;28578;-78
2021/03/25 18:56:05;;;;;;;56.75;25.05;;;;;;;4.72;100.00;99506.18;4235803;83;28649;-78
2021/03/25 19:02:16;;;;;;;61.58;27.40;;;;;;;4.94;100.00;99509.48;4244582;83;28551;-79
2021/03/25 19:08:20;;;;;;;58.63;25.62;;;;;;;5.00;100.00;99512.23;4263606;83;28548;-76
2021/03/25 19:14:22;;;;;;;66.75;26.87;;;;;;;4.98;100.00;99508.09;4241655;83;28553;-77
2021/03/25 19:20:28;;;;;;;67.05;27.82;;;;;;;4.85;100.00;99510.08;4242354;83;28605;-79
2021/03/25 19:26:31;;;;;;;59.80;27.25;;;;;;;4.72;100.00;99516.02;4237913;82;28582;-78
2021/03/25 19:32:33;;;;;;;59.33;26.90;;;;;;;4.40;100.00;99520.11;4187219;84;28634;-78
2021/03/25 19:38:36;;;;;;;67.30;29.60;;;;;;;4.29;100.00;99524.52;4323648;80;28610;-78
2021/03/25 19:44:40;;;;;;;61.10;25.85;;;;;;;4.19;100.00;99528.77;4348508;81;28541;-78
2021/03/25 19:50:43;;;;;;;66.47;29.15;;;;;;;3.99;100.00;99529.72;4335847;80;28585;-78
2021/03/25 19:56:45;;;;;;;71.12;30.80;;;;;;;3.84;100.00;99536.28;4324206;81;28551;-79
2021/03/25 20:02:47;;;;;;;67.30;27.67;;;;;;;3.86;100.00;99543.61;4339750;81;28544;-78
2021/03/25 20:08:50;;;;;;;71.17;32.33;;;;;;;3.87;100.00;99550.59;4335445;80;28539;-78
2021/03/25 20:14:52;;;;;;;64.27;29.90;;;;;;;3.99;100.00;99548.34;4203462;84;28585;-80
2021/03/25 20:20:56;;;;;;;67.00;31.70;;;;;;;3.60;100.00;99554.88;4281260;82;28649;-78
2021/03/25 20:26:59;;;;;;;68.10;29.92;;;;;;;3.55;100.00;99555.88;4184429;84;28624;-75
2021/03/25 20:33:01;;;;;;;79.10;34.78;;;;;;;3.31;100.00;99558.12;4204632;84;28545;-74
2021/03/25 20:39:06;;;;;;;75.32;34.25;;;;;;;3.18;100.00;99567.97;4340666;81;28551;-74
2021/03/25 20:45:13;;;;;;;69.80;30.88;;;;;;;3.05;100.00;99571.14;4328782;81;28584;-73
2021/03/25 20:51:16;;;;;;;68.28;30.55;;;;;;;2.88;100.00;99569.83;4340900;81;28575;-75
2021/03/25 20:57:19;;;;;;;79.37;34.13;;;;;;;2.86;100.00;99578.47;4334619;81;28642;-76
2021/03/25 21:03:26;;;;;;;81.42;37.03;;;;;;;2.91;100.00;99588.59;4320873;81;28548;-75
2021/03/25 21:09:28;;;;;;;85.47;35.43;;;;;;;2.87;100.00;99599.23;4322651;81;28689;-75
2021/03/25 21:15:36;;;;;;;77.42;33.05;;;;;;;2.66;100.00;99595.25;4322522;81;28609;-73
2021/03/25 21:21:39;;;;;;;76.00;33.73;;;;;;;2.44;100.00;99605.50;4314606;81;28615;-75
2021/03/25 21:27:41;;;;;;;77.67;34.43;;;;;;;2.36;100.00;99602.86;4330412;81;28581;-75
2021/03/25 21:33:47;;;;;;;76.10;34.33;;;;;;;2.24;100.00;99607.63;4336103;81;28535;-74
2021/03/25 21:39:51;;;;;;;75.75;33.55;;;;;;;2.09;100.00;99600.31;4320196;81;28563;-75
2021/03/25 21:45:58;;;;;;;84.07;36.68;;;;;;;2.11;100.00;99611.26;4193602;83;28648;-74
2021/03/25 21:52:01;;;;;;;80.50;36.15;;;;;;;2.02;100.00;99621.84;4171038;84;28634;-74
2021/03/25 21:58:03;;;;;;;83.37;36.17;;;;;;;1.97;100.00;99619.33;4186827;84;28622;-73
2021/03/25 22:04:08;;;;;;;83.82;37.10;;;;;;;1.66;100.00;99616.23;4189174;84;28644;-74
2021/03/25 22:10:12;;;;;;;88.75;38.55;;;;;;;1.78;100.00;99614.62;4176761;84;28571;-74
2021/03/25 22:16:15;;;;;;;88.42;36.33;;;;;;;1.68;100.00;99610.78;4182876;84;28585;-75
2021/03/25 22:22:17;;;;;;;83.97;37.50;;;;;;;1.66;100.00;99611.41;4191565;84;28596;-75
2021/03/25 22:28:20;;;;;;;91.32;40.08;;;;;;;1.53;100.00;99616.66;4201057;84;44471;-74
2021/03/25 22:34:24;;;;;;;88.55;37.63;;;;;;;1.51;100.00;99619.97;4190292;84;28645;-74
2021/03/25 22:40:32;;;;;;;95.60;40.20;;;;;;;1.39;100.00;99622.05;4185805;84;28564;-74
2021/03/25 22:46:35;;;;;;;89.58;38.85;;;;;;;1.29;100.00;99626.62;4202038;84;28621;-74
2021/03/25 22:52:37;;;;;;;89.00;38.53;;;;;;;1.16;100.00;99620.44;4210311;84;44465;-75
2021/03/25 22:58:40;;;;;;;92.62;39.83;;;;;;;1.15;100.00;99628.52;4206981;84;28578;-75
2021/03/25 23:04:42;;;;;;;93.10;40.20;;;;;;;1.21;100.00;99631.38;4190822;84;44480;-76
2021/03/25 23:10:49;;;;;;;100.85;41.92;;;;;;;0.99;100.00;99634.53;4209592;84;28642;-75
2021/03/25 23:16:52;;;;;;;94.85;41.15;;;;;;;0.88;100.00;99630.30;4189925;84;28569;-75
2021/03/25 23:22:59;;;;;;;96.00;40.52;;;;;;;0.84;100.00;99628.48;4201834;84;43227;-75
2021/03/25 23:29:04;;;;;;;93.92;41.10;;;;;;;0.77;100.00;99627.42;4268598;83;44433;-75
2021/03/25 23:35:08;;;;;;;94.03;41.02;;;;;;;0.78;100.00;99630.41;4269419;83;44478;-75
2021/03/25 23:41:14;;;;;;;96.92;41.92;;;;;;;0.75;100.00;99626.75;4228446;83;43733;-74
2021/03/25 23:47:17;;;;;;;92.12;41.95;;;;;;;0.63;100.00;99628.78;4258563;83;44441;-75
2021/03/25 23:53:22;;;;;;;90.25;41.13;;;;;;;0.59;100.00;99621.63;4233636;83;28570;-75
2021/03/25 23:59:25;;;;;;;100.20;42.53;;;;;;;0.45;100.00;99619.53;4273308;83;28634;-75
